createdAt,value
2017-11-15T00:00:28.975Z,5.80
2017-11-15T00:02:56.631Z,5.90
2017-11-15T00:05:24.266Z,5.90
2017-11-15T00:07:51.895Z,5.90
2017-11-15T00:10:19.554Z,5.90
2017-11-15T00:12:47.187Z,5.90
2017-11-15T00:15:14.895Z,5.90
2017-11-15T00:17:43.293Z,5.90
2017-11-15T00:20:10.915Z,5.80
2017-11-15T00:22:38.575Z,5.90
2017-11-15T00:25:06.218Z,5.90
2017-11-15T00:27:33.875Z,5.90
2017-11-15T00:30:01.527Z,5.90
2017-11-15T00:32:29.162Z,6.00
2017-11-15T00:34:56.826Z,5.90
2017-11-15T00:37:24.465Z,5.90
2017-11-15T00:39:52.131Z,6.00
2017-11-15T00:42:19.770Z,6.00
2017-11-15T00:44:47.396Z,5.90
2017-11-15T00:47:15.047Z,5.90
2017-11-15T00:49:42.681Z,5.80
2017-11-15T00:52:10.335Z,5.90
2017-11-15T00:54:37.964Z,5.90
2017-11-15T00:57:05.601Z,5.90
2017-11-15T00:59:34.026Z,5.90
2017-11-15T01:02:01.649Z,5.80
2017-11-15T01:04:29.300Z,5.90
2017-11-15T01:06:56.937Z,5.90
2017-11-15T01:09:24.568Z,5.90
2017-11-15T01:11:52.220Z,5.90
2017-11-15T01:14:19.855Z,5.80
2017-11-15T01:16:47.512Z,5.80
2017-11-15T01:19:15.135Z,5.80
2017-11-15T01:21:43.536Z,5.80
2017-11-15T01:24:11.191Z,5.70
2017-11-15T01:26:38.845Z,5.80
2017-11-15T01:29:06.502Z,5.90
2017-11-15T01:31:34.129Z,5.90
2017-11-15T01:34:01.771Z,5.90
2017-11-15T01:36:29.424Z,5.80
2017-11-15T01:38:57.052Z,5.80
2017-11-15T01:41:24.704Z,5.80
2017-11-15T01:43:52.356Z,5.80
2017-11-15T01:46:20.138Z,5.80
2017-11-15T01:48:47.799Z,5.80
2017-11-15T01:51:15.422Z,5.80
2017-11-15T01:53:43.116Z,5.90
2017-11-15T01:56:11.507Z,5.90
2017-11-15T01:58:39.126Z,5.80
2017-11-15T02:01:14.620Z,5.90
2017-11-15T02:03:42.243Z,5.90
2017-11-15T02:06:09.900Z,5.90
2017-11-15T02:08:37.533Z,5.90
2017-11-15T02:11:05.168Z,5.90
2017-11-15T02:13:32.832Z,5.90
2017-11-15T02:16:00.452Z,5.80
2017-11-15T02:18:28.110Z,5.80
2017-11-15T02:20:55.747Z,5.80
2017-11-15T02:23:23.379Z,5.80
2017-11-15T02:25:51.044Z,5.80
2017-11-15T02:28:18.664Z,5.90
2017-11-15T02:30:46.345Z,5.90
2017-11-15T02:33:13.963Z,5.90
2017-11-15T02:35:41.595Z,5.80
2017-11-15T02:38:10.017Z,5.80
2017-11-15T02:40:37.653Z,5.80
2017-11-15T02:43:05.306Z,5.80
2017-11-15T02:45:32.948Z,5.80
2017-11-15T02:48:00.577Z,5.90
2017-11-15T02:50:28.250Z,5.80
2017-11-15T02:52:55.868Z,5.80
2017-11-15T02:55:23.529Z,5.80
2017-11-15T02:57:51.151Z,5.80
2017-11-15T03:00:18.791Z,5.80
2017-11-15T03:02:46.443Z,5.90
2017-11-15T03:05:14.080Z,5.90
2017-11-15T03:07:41.736Z,5.80
2017-11-15T03:10:09.353Z,5.80
2017-11-15T03:12:36.996Z,5.80
2017-11-15T03:15:04.646Z,5.80
2017-11-15T03:17:32.262Z,5.90
2017-11-15T03:19:59.920Z,5.80
2017-11-15T03:22:27.548Z,5.70
2017-11-15T03:24:55.172Z,5.80
2017-11-15T03:27:22.834Z,5.80
2017-11-15T03:29:50.487Z,5.70
2017-11-15T03:32:18.152Z,5.70
2017-11-15T03:34:45.778Z,5.70
2017-11-15T03:37:13.392Z,5.80
2017-11-15T03:39:41.047Z,5.80
2017-11-15T03:42:08.668Z,5.80
2017-11-15T03:44:37.102Z,5.80
2017-11-15T03:47:04.722Z,5.80
2017-11-15T03:49:32.344Z,5.90
2017-11-15T03:52:00.023Z,5.80
2017-11-15T03:54:27.657Z,5.70
2017-11-15T03:56:55.328Z,5.80
2017-11-15T03:59:22.964Z,5.70
2017-11-15T04:01:50.645Z,5.70
2017-11-15T04:04:18.295Z,5.80
2017-11-15T04:06:46.686Z,5.80
2017-11-15T04:09:14.343Z,5.90
2017-11-15T04:11:41.968Z,5.80
2017-11-15T04:14:10.361Z,5.80
2017-11-15T04:16:38.023Z,5.70
2017-11-15T04:19:05.642Z,5.80
2017-11-15T04:21:33.292Z,5.70
2017-11-15T04:24:00.914Z,5.70
2017-11-15T04:26:29.295Z,5.80
2017-11-15T04:28:56.973Z,5.70
2017-11-15T04:31:24.613Z,5.80
2017-11-15T04:33:52.270Z,5.80
2017-11-15T04:36:19.915Z,5.70
2017-11-15T04:38:47.545Z,5.80
2017-11-15T04:41:15.194Z,5.70
2017-11-15T04:43:43.706Z,5.70
2017-11-15T04:46:11.470Z,5.80
2017-11-15T04:48:39.860Z,5.80
2017-11-15T04:51:07.494Z,5.70
2017-11-15T04:53:35.160Z,5.70
2017-11-15T04:56:02.865Z,5.70
2017-11-15T04:58:30.515Z,5.80
2017-11-15T05:00:58.171Z,5.80
2017-11-15T05:03:26.551Z,5.80
2017-11-15T05:05:54.211Z,5.80
2017-11-15T05:08:21.827Z,5.80
2017-11-15T05:10:50.245Z,5.80
2017-11-15T05:13:17.875Z,5.80
2017-11-15T05:15:45.500Z,5.80
2017-11-15T05:18:13.152Z,5.70
2017-11-15T05:20:40.775Z,5.70
2017-11-15T05:23:09.251Z,5.80
2017-11-15T05:25:37.642Z,5.80
2017-11-15T05:28:05.260Z,5.80
2017-11-15T05:30:32.917Z,5.90
2017-11-15T05:33:00.536Z,5.90
2017-11-15T05:35:28.187Z,5.90
2017-11-15T05:37:56.609Z,5.90
2017-11-15T05:40:24.252Z,5.90
2017-11-15T05:42:51.906Z,5.90
2017-11-15T05:45:19.535Z,5.90
2017-11-15T05:47:47.207Z,6.00
2017-11-15T05:50:14.827Z,5.90
2017-11-15T05:52:42.454Z,5.90
2017-11-15T05:55:10.110Z,5.90
2017-11-15T05:57:37.741Z,5.90
2017-11-15T06:00:06.168Z,6.00
2017-11-15T06:02:33.797Z,5.90
2017-11-15T06:05:01.415Z,6.00
2017-11-15T06:07:29.062Z,6.00
2017-11-15T06:09:56.683Z,6.00
2017-11-15T06:12:25.141Z,6.00
2017-11-15T06:14:53.604Z,6.00
2017-11-15T06:17:21.256Z,6.00
2017-11-15T06:19:48.872Z,6.00
2017-11-15T06:22:16.530Z,5.90
2017-11-15T06:24:44.293Z,5.90
2017-11-15T06:27:11.961Z,6.00
2017-11-15T06:29:39.686Z,5.90
2017-11-15T06:32:08.036Z,5.90
2017-11-15T06:34:35.659Z,5.90
2017-11-15T06:37:03.326Z,6.00
2017-11-15T06:39:30.987Z,6.00
2017-11-15T06:41:58.602Z,5.90
2017-11-15T06:44:26.262Z,5.90
2017-11-15T06:46:53.891Z,6.00
2017-11-15T06:49:22.394Z,6.00
2017-11-15T06:51:50.821Z,6.00
2017-11-15T06:54:18.443Z,5.90
2017-11-15T06:56:46.071Z,6.00
2017-11-15T06:59:14.492Z,5.90
2017-11-15T07:01:42.103Z,5.90
2017-11-15T07:04:09.729Z,6.00
2017-11-15T07:06:37.398Z,6.00
2017-11-15T07:09:05.027Z,6.00
2017-11-15T07:11:32.648Z,6.00
2017-11-15T07:14:01.071Z,6.10
2017-11-15T07:16:28.692Z,6.00
2017-11-15T07:18:56.311Z,6.10
2017-11-15T07:21:23.984Z,6.10
2017-11-15T07:23:52.380Z,6.10
2017-11-15T07:26:20.036Z,6.10
2017-11-15T07:28:47.652Z,6.20
2017-11-15T07:31:15.276Z,6.20
2017-11-15T07:33:42.924Z,6.20
2017-11-15T07:36:10.551Z,6.30
2017-11-15T07:38:38.195Z,6.30
2017-11-15T07:41:05.808Z,6.30
2017-11-15T07:43:33.425Z,6.30
2017-11-15T07:46:01.837Z,6.50
2017-11-15T07:48:29.458Z,6.40
2017-11-15T07:50:57.116Z,6.50
2017-11-15T07:53:24.730Z,6.40
2017-11-15T07:55:53.115Z,6.50
2017-11-15T07:58:20.769Z,6.40
2017-11-15T08:00:48.387Z,6.50
2017-11-15T08:03:16.807Z,6.60
2017-11-15T08:05:44.420Z,6.50
2017-11-15T08:08:12.071Z,6.60
2017-11-15T08:10:39.723Z,6.70
2017-11-15T08:13:07.351Z,6.70
2017-11-15T08:15:35.007Z,6.60
2017-11-15T08:18:02.654Z,6.70
2017-11-15T08:20:31.065Z,6.70
2017-11-15T08:22:58.715Z,6.70
2017-11-15T08:25:26.336Z,6.80
2017-11-15T08:27:54.755Z,6.90
2017-11-15T08:30:22.390Z,6.90
2017-11-15T08:32:50.027Z,6.90
2017-11-15T08:35:17.683Z,6.90
2017-11-15T08:37:45.319Z,7.00
2017-11-15T08:40:12.978Z,7.00
2017-11-15T08:42:40.661Z,7.00
2017-11-15T08:45:08.286Z,7.10
2017-11-15T08:47:35.943Z,7.20
2017-11-15T08:50:03.567Z,7.30
2017-11-15T08:52:31.223Z,7.30
2017-11-15T08:54:58.852Z,7.30
2017-11-15T08:57:26.473Z,7.30
2017-11-15T08:59:54.133Z,7.30
2017-11-15T09:02:21.761Z,7.30
2017-11-15T09:04:49.471Z,7.30
2017-11-15T09:07:17.096Z,7.30
2017-11-15T09:09:44.726Z,7.40
2017-11-15T09:12:12.382Z,7.40
2017-11-15T09:14:40.003Z,7.50
2017-11-15T09:17:07.656Z,7.60
2017-11-15T09:19:35.315Z,7.70
2017-11-15T09:22:02.926Z,7.70
2017-11-15T09:24:30.576Z,7.80
2017-11-15T09:26:58.210Z,7.80
2017-11-15T09:29:25.868Z,7.60
2017-11-15T09:31:54.266Z,7.70
2017-11-15T09:34:21.887Z,7.60
2017-11-15T09:36:50.305Z,7.70
2017-11-15T09:39:17.922Z,7.60
2017-11-15T09:41:45.574Z,7.70
2017-11-15T09:44:13.200Z,7.60
2017-11-15T09:46:40.842Z,7.50
2017-11-15T09:49:09.271Z,7.50
2017-11-15T09:51:36.903Z,7.40
2017-11-15T09:54:04.547Z,7.50
2017-11-15T09:56:32.178Z,7.60
2017-11-15T09:58:59.815Z,7.50
2017-11-15T10:01:27.487Z,7.60
2017-11-15T10:03:55.109Z,7.70
2017-11-15T10:06:22.760Z,7.80
2017-11-15T10:08:50.412Z,7.80
2017-11-15T10:11:18.031Z,7.90
2017-11-15T10:13:45.691Z,7.90
2017-11-15T10:16:13.316Z,7.90
2017-11-15T10:18:41.732Z,8.10
2017-11-15T10:21:09.385Z,8.00
2017-11-15T10:23:37.047Z,8.10
2017-11-15T10:26:04.672Z,8.10
2017-11-15T10:28:32.291Z,8.10
2017-11-15T10:30:59.957Z,8.20
2017-11-15T10:33:27.615Z,8.30
2017-11-15T10:35:55.271Z,8.40
2017-11-15T10:38:22.887Z,8.40
2017-11-15T10:40:51.587Z,8.40
2017-11-15T10:43:19.268Z,8.30
2017-11-15T10:45:46.925Z,8.40
2017-11-15T10:48:14.579Z,8.40
2017-11-15T10:50:42.209Z,8.40
2017-11-15T10:53:09.872Z,8.50
2017-11-15T10:55:37.502Z,8.50
2017-11-15T10:58:05.152Z,8.50
2017-11-15T11:00:38.460Z,8.60
2017-11-15T11:03:06.873Z,8.60
2017-11-15T11:05:34.506Z,8.50
2017-11-15T11:08:02.154Z,8.60
2017-11-15T11:10:29.827Z,8.60
2017-11-15T11:12:57.455Z,8.60
2017-11-15T11:15:25.111Z,8.50
2017-11-15T11:17:52.735Z,8.50
2017-11-15T11:20:21.823Z,8.60
2017-11-15T11:22:49.481Z,8.60
2017-11-15T11:25:17.112Z,8.70
2017-11-15T11:27:44.768Z,8.60
2017-11-15T11:30:12.400Z,8.70
2017-11-15T11:32:40.029Z,8.70
2017-11-15T11:35:08.443Z,8.80
2017-11-15T11:37:36.091Z,8.70
2017-11-15T11:40:03.743Z,8.80
2017-11-15T11:42:31.380Z,8.70
2017-11-15T11:44:59.005Z,8.70
2017-11-15T11:47:26.659Z,8.70
2017-11-15T11:49:54.282Z,8.70
2017-11-15T11:52:21.926Z,8.70
2017-11-15T11:54:49.541Z,8.80
2017-11-15T11:57:17.195Z,8.80
2017-11-15T11:59:44.879Z,8.70
2017-11-15T12:02:12.512Z,8.70
2017-11-15T12:04:40.172Z,8.70
2017-11-15T12:07:07.796Z,8.70
2017-11-15T12:09:36.180Z,8.60
2017-11-15T12:12:03.825Z,8.60
2017-11-15T12:14:31.445Z,8.70
2017-11-15T12:16:59.863Z,8.50
2017-11-15T12:19:27.491Z,8.40
2017-11-15T12:21:55.120Z,8.40
2017-11-15T12:24:22.763Z,8.50
2017-11-15T12:26:50.392Z,8.50
2017-11-15T12:29:18.805Z,8.60
2017-11-15T12:31:46.433Z,8.50
2017-11-15T12:34:14.067Z,8.60
2017-11-15T12:36:41.714Z,8.50
2017-11-15T12:39:09.333Z,8.50
2017-11-15T12:41:37.756Z,8.60
2017-11-15T12:44:05.370Z,8.50
2017-11-15T12:46:32.995Z,8.60
2017-11-15T12:49:01.416Z,8.60
2017-11-15T12:51:29.035Z,8.50
2017-11-15T12:53:56.699Z,8.60
2017-11-15T12:56:24.318Z,8.70
2017-11-15T12:58:52.699Z,8.80
2017-11-15T13:01:20.348Z,8.70
2017-11-15T13:03:47.975Z,8.80
2017-11-15T13:06:15.623Z,8.70
2017-11-15T13:08:43.243Z,8.70
2017-11-15T13:11:10.867Z,8.70
2017-11-15T13:13:38.533Z,8.80
2017-11-15T13:16:06.156Z,8.80
2017-11-15T13:18:33.804Z,8.80
2017-11-15T13:21:01.426Z,8.90
2017-11-15T13:23:29.063Z,9.00
2017-11-15T13:25:56.720Z,9.00
2017-11-15T13:28:24.352Z,9.10
2017-11-15T13:30:52.021Z,9.00
2017-11-15T13:33:19.640Z,9.00
2017-11-15T13:35:47.359Z,8.90
2017-11-15T13:38:15.795Z,8.80
2017-11-15T13:40:43.416Z,8.80
2017-11-15T13:43:11.076Z,8.90
2017-11-15T13:45:38.692Z,8.80
2017-11-15T13:48:06.308Z,8.80
2017-11-15T13:50:34.728Z,8.80
2017-11-15T13:53:02.347Z,8.70
2017-11-15T13:55:30.013Z,8.90
2017-11-15T13:57:57.641Z,8.80
2017-11-15T14:00:25.258Z,8.70
2017-11-15T14:02:53.676Z,8.80
2017-11-15T14:05:21.366Z,8.70
2017-11-15T14:07:49.801Z,8.70
2017-11-15T14:10:17.427Z,8.70
2017-11-15T14:12:45.052Z,8.70
2017-11-15T14:15:12.708Z,8.70
2017-11-15T14:17:40.333Z,8.70
2017-11-15T14:20:08.752Z,8.70
2017-11-15T14:22:36.383Z,8.60
2017-11-15T14:25:04.006Z,8.60
2017-11-15T14:27:31.659Z,8.70
2017-11-15T14:29:59.283Z,8.70
2017-11-15T14:32:26.939Z,8.70
2017-11-15T14:34:54.647Z,8.70
2017-11-15T14:37:22.276Z,8.70
2017-11-15T14:39:49.935Z,8.60
2017-11-15T14:42:17.564Z,8.60
2017-11-15T14:44:45.238Z,8.60
2017-11-15T14:47:13.216Z,8.60
2017-11-15T14:49:41.608Z,8.70
2017-11-15T14:52:10.483Z,8.60
2017-11-15T14:54:38.418Z,8.60
2017-11-15T14:57:06.070Z,8.60
2017-11-15T14:59:33.690Z,8.60
2017-11-15T15:02:02.112Z,8.60
2017-11-15T15:04:29.726Z,8.60
2017-11-15T15:06:57.347Z,8.60
2017-11-15T15:09:25.000Z,8.50
2017-11-15T15:11:53.378Z,8.50
2017-11-15T15:14:21.800Z,8.50
2017-11-15T15:16:49.436Z,8.50
2017-11-15T15:19:17.091Z,8.50
2017-11-15T15:21:44.751Z,8.40
2017-11-15T15:24:12.442Z,8.50
2017-11-15T15:26:40.100Z,8.50
2017-11-15T15:29:07.739Z,8.50
2017-11-15T15:31:35.391Z,8.50
2017-11-15T15:34:03.073Z,8.50
2017-11-15T15:36:30.736Z,8.50
2017-11-15T15:38:58.539Z,8.50
2017-11-15T15:41:26.167Z,8.40
2017-11-15T15:43:53.819Z,8.40
2017-11-15T15:46:21.467Z,8.40
2017-11-15T15:48:49.131Z,8.30
2017-11-15T15:51:16.808Z,8.30
2017-11-15T15:53:44.703Z,8.40
2017-11-15T15:56:12.334Z,8.40
2017-11-15T15:58:40.723Z,8.30
2017-11-15T16:01:08.395Z,8.30
2017-11-15T16:03:36.035Z,8.30
2017-11-15T16:06:05.012Z,8.40
2017-11-15T16:08:32.642Z,8.40
2017-11-15T16:11:00.302Z,8.40
2017-11-15T16:13:27.918Z,8.40
2017-11-15T16:15:56.300Z,8.40
2017-11-15T16:18:23.948Z,8.40
2017-11-15T16:20:51.563Z,8.40
2017-11-15T16:23:19.983Z,8.40
2017-11-15T16:25:47.609Z,8.40
2017-11-15T16:28:15.279Z,8.40
2017-11-15T16:30:42.904Z,8.40
2017-11-15T16:33:10.549Z,8.40
2017-11-15T16:35:38.318Z,8.40
2017-11-15T16:38:05.959Z,8.40
2017-11-15T16:40:33.636Z,8.40
2017-11-15T16:43:01.276Z,8.30
2017-11-15T16:45:28.941Z,8.20
2017-11-15T16:47:56.563Z,8.10
2017-11-15T16:50:24.199Z,8.10
2017-11-15T16:52:51.994Z,8.20
2017-11-15T16:55:20.404Z,8.10
2017-11-15T16:57:48.060Z,8.10
2017-11-15T17:00:15.692Z,8.10
2017-11-15T17:02:43.385Z,8.20
2017-11-15T17:05:11.024Z,8.20
2017-11-15T17:07:38.761Z,8.20
2017-11-15T17:10:06.424Z,8.30
2017-11-15T17:12:34.056Z,8.30
2017-11-15T17:15:01.813Z,8.30
2017-11-15T17:17:29.451Z,8.30
2017-11-15T17:19:57.112Z,8.30
2017-11-15T17:22:24.734Z,8.30
2017-11-15T17:24:52.395Z,8.40
2017-11-15T17:27:20.048Z,8.30
2017-11-15T17:29:49.515Z,8.30
2017-11-15T17:32:18.041Z,8.30
2017-11-15T17:34:45.692Z,8.40
2017-11-15T17:37:13.354Z,8.30
2017-11-15T17:39:41.983Z,8.30
2017-11-15T17:42:09.619Z,8.30
2017-11-15T17:44:37.280Z,8.30
2017-11-15T17:47:06.455Z,8.30
2017-11-15T17:49:34.989Z,8.20
2017-11-15T17:52:02.649Z,8.30
2017-11-15T17:57:05.943Z,8.30
2017-11-15T17:59:34.387Z,8.30
2017-11-15T18:02:02.508Z,8.20
2017-11-15T18:04:30.323Z,8.20
2017-11-15T18:06:58.762Z,8.20
2017-11-15T18:09:28.272Z,8.10
2017-11-15T18:11:56.734Z,8.20
2017-11-15T18:14:25.933Z,8.20
2017-11-15T18:16:54.980Z,8.10
2017-11-15T18:19:22.606Z,8.10
2017-11-15T18:21:50.235Z,8.10
2017-11-15T18:24:17.888Z,8.10
2017-11-15T18:26:45.518Z,8.10
2017-11-15T18:29:14.213Z,8.00
2017-11-15T18:31:41.834Z,8.00
2017-11-15T18:34:09.686Z,7.90
2017-11-15T18:36:38.740Z,7.90
2017-11-15T18:39:06.411Z,7.90
2017-11-15T18:41:34.074Z,7.90
2017-11-15T18:44:01.710Z,7.90
2017-11-15T18:46:31.574Z,7.90
2017-11-15T18:49:00.588Z,7.90
2017-11-15T18:51:28.246Z,7.80
2017-11-15T18:53:55.882Z,7.80
2017-11-15T18:56:23.513Z,8.00
2017-11-15T18:58:51.941Z,8.00
2017-11-15T19:01:19.554Z,7.90
2017-11-15T19:03:47.227Z,8.00
2017-11-15T19:06:16.638Z,8.00
2017-11-15T19:08:44.297Z,8.00
2017-11-15T19:11:13.075Z,7.90
2017-11-15T19:13:42.653Z,7.80
2017-11-15T19:16:10.311Z,7.80
2017-11-15T19:18:37.956Z,7.80
2017-11-15T19:21:05.619Z,7.90
2017-11-15T19:23:33.235Z,7.90
2017-11-15T19:26:01.012Z,7.90
2017-11-15T19:28:29.437Z,7.80
2017-11-15T19:30:57.069Z,7.80
2017-11-15T19:33:24.762Z,7.70
2017-11-15T19:35:52.485Z,7.70
2017-11-15T19:38:20.149Z,7.70
2017-11-15T19:40:48.550Z,7.80
2017-11-15T19:43:16.203Z,7.70
2017-11-15T19:45:43.844Z,7.80
2017-11-15T19:48:11.511Z,7.80
2017-11-15T19:50:39.143Z,7.90
2017-11-15T19:53:06.764Z,7.80
2017-11-15T19:55:34.425Z,7.80
2017-11-15T19:58:02.048Z,7.80
2017-11-15T20:00:30.468Z,7.80
2017-11-15T20:02:58.092Z,7.70
2017-11-15T20:05:25.759Z,7.80
2017-11-15T20:07:53.409Z,7.80
2017-11-15T20:10:21.260Z,7.80
2017-11-15T20:12:49.026Z,7.80
2017-11-15T20:15:17.441Z,7.80
2017-11-15T20:17:45.175Z,7.70
2017-11-15T20:20:13.700Z,7.80
2017-11-15T20:22:41.395Z,7.70
2017-11-15T20:25:09.013Z,7.80
2017-11-15T20:27:37.561Z,7.80
2017-11-15T20:30:05.243Z,7.70
2017-11-15T20:32:33.640Z,7.80
2017-11-15T20:35:01.301Z,7.70
2017-11-15T20:37:28.927Z,7.70
2017-11-15T20:39:56.581Z,7.70
2017-11-15T20:42:24.211Z,7.70
2017-11-15T20:44:51.845Z,7.70
2017-11-15T20:47:19.505Z,7.60
2017-11-15T20:49:47.386Z,7.60
2017-11-15T20:52:15.061Z,7.60
2017-11-15T20:54:42.729Z,7.50
2017-11-15T20:57:11.392Z,7.60
2017-11-15T20:59:41.284Z,7.60
2017-11-15T21:02:08.911Z,7.60
2017-11-15T21:04:36.604Z,7.60
2017-11-15T21:07:05.005Z,7.50
2017-11-15T21:09:32.680Z,7.50
2017-11-15T21:12:00.302Z,7.50
2017-11-15T21:14:28.032Z,7.50
2017-11-15T21:16:55.663Z,7.50
2017-11-15T21:19:23.290Z,7.50
2017-11-15T21:21:51.709Z,7.50
2017-11-15T21:24:19.340Z,7.40
2017-11-15T21:26:47.017Z,7.50
2017-11-15T21:29:14.651Z,7.40
2017-11-15T21:31:42.319Z,7.50
2017-11-15T21:34:10.009Z,7.50
2017-11-15T21:36:37.826Z,7.50
2017-11-15T21:39:05.482Z,7.50
2017-11-15T21:41:33.868Z,7.30
2017-11-15T21:44:01.521Z,7.30
2017-11-15T21:46:29.140Z,7.40
2017-11-15T21:48:57.579Z,7.40
2017-11-15T21:51:25.212Z,7.30
2017-11-15T21:53:52.847Z,7.40
2017-11-15T21:56:20.519Z,7.40
2017-11-15T21:58:48.145Z,7.40
2017-11-15T22:01:15.818Z,7.40
2017-11-15T22:03:43.613Z,7.50
2017-11-15T22:06:11.282Z,7.40
2017-11-15T22:08:38.908Z,7.30
2017-11-15T22:11:06.531Z,7.30
2017-11-15T22:13:34.961Z,7.30
2017-11-15T22:16:02.618Z,7.30
2017-11-15T22:18:30.282Z,7.30
2017-11-15T22:20:58.676Z,7.40
2017-11-15T22:23:26.412Z,7.30
2017-11-15T22:25:54.056Z,7.30
2017-11-15T22:28:21.806Z,7.30
2017-11-15T22:30:49.488Z,7.40
2017-11-15T22:33:17.146Z,7.40
2017-11-15T22:35:44.831Z,7.40
2017-11-15T22:38:13.285Z,7.30
2017-11-15T22:40:40.944Z,7.30
2017-11-15T22:43:09.353Z,7.30
2017-11-15T22:45:37.013Z,7.20
2017-11-15T22:48:05.487Z,7.30
2017-11-15T22:50:33.117Z,7.20
2017-11-15T22:53:00.784Z,7.30
2017-11-15T22:55:28.399Z,7.30
2017-11-15T22:57:56.071Z,7.30
2017-11-15T23:00:23.719Z,7.30
2017-11-15T23:02:51.343Z,7.30
2017-11-15T23:05:18.995Z,7.40
2017-11-15T23:07:46.622Z,7.30
2017-11-15T23:10:14.331Z,7.30
2017-11-15T23:12:41.964Z,7.30
2017-11-15T23:15:09.625Z,7.30
2017-11-15T23:17:37.247Z,7.40
2017-11-15T23:20:04.879Z,7.40
2017-11-15T23:25:06.463Z,7.40
2017-11-15T23:27:34.120Z,7.30
2017-11-15T23:30:02.519Z,7.30
2017-11-15T23:32:30.137Z,7.20
2017-11-15T23:34:58.572Z,7.30
2017-11-15T23:39:59.079Z,7.30
2017-11-15T23:42:26.703Z,7.30
2017-11-15T23:44:54.344Z,7.30
2017-11-15T23:47:22.254Z,7.20
2017-11-15T23:49:50.654Z,7.30
2017-11-15T23:52:18.321Z,7.20
2017-11-15T23:54:45.961Z,7.30
2017-11-15T23:57:13.591Z,7.20
2017-11-15T23:59:41.247Z,7.20
